sensor_id;sensor_type;location;lat;lon;timestamp;pressure;altitude;pressure_sealevel;temperature;humidity
19777;BME280;10047;42.490;26.012;2022-10-16T00:00:36;100889.91;;;11.19;100.00
19777;BME280;10047;42.490;26.012;2022-10-16T00:03:03;100879.88;;;11.12;100.00
19777;BME280;10047;42.490;26.012;2022-10-16T00:05:29;100814.28;;;10.18;100.00
19777;BME280;10047;42.490;26.012;2022-10-16T00:07:55;100830.22;;;10.29;100.00
19777;BME280;10047;42.490;26.012;2022-10-16T00:10:20;100800.59;;;10.26;100.00
19777;BME280;10047;42.490;26.012;2022-10-16T00:12:46;100892.69;;;10.45;100.00
19777;BME280;10047;42.490;26.012;2022-10-16T00:15:11;100835.53;;;10.06;100.00
19777;BME280;10047;42.490;26.012;2022-10-16T00:17:37;100810.13;;;10.09;100.00
19777;BME280;10047;42.490;26.012;2022-10-16T00:20:03;100886.72;;;10.49;100.00
19777;BME280;10047;42.490;26.012;2022-10-16T00:22:28;100879.19;;;10.41;100.00
19777;BME280;10047;42.490;26.012;2022-10-16T00:24:54;100876.91;;;10.84;100.00
19777;BME280;10047;42.490;26.012;2022-10-16T00:27:19;100879.97;;;11.06;100.00
19777;BME280;10047;42.490;26.012;2022-10-16T00:29:48;100873.94;;;10.52;100.00
19777;BME280;10047;42.490;26.012;2022-10-16T00:32:14;100883.59;;;10.90;100.00
19777;BME280;10047;42.490;26.012;2022-10-16T00:34:39;100887.94;;;10.83;100.00
19777;BME280;10047;42.490;26.012;2022-10-16T00:37:05;100831.53;;;10.57;100.00
19777;BME280;10047;42.490;26.012;2022-10-16T00:39:31;100810.44;;;10.51;100.00
19777;BME280;10047;42.490;26.012;2022-10-16T00:41:56;100884.72;;;10.71;100.00
19777;BME280;10047;42.490;26.012;2022-10-16T00:44:58;100883.03;;;10.70;100.00
19777;BME280;10047;42.490;26.012;2022-10-16T00:47:29;100895.91;;;11.17;100.00
19777;BME280;10047;42.490;26.012;2022-10-16T00:50:07;100896.31;;;10.90;100.00
19777;BME280;10047;42.490;26.012;2022-10-16T00:52:33;100829.28;;;10.34;100.00
19777;BME280;10047;42.490;26.012;2022-10-16T00:55:00;100891.03;;;11.02;100.00
19777;BME280;10047;42.490;26.012;2022-10-16T00:57:28;100898.72;;;11.00;100.00
19777;BME280;10047;42.490;26.012;2022-10-16T00:59:53;100783.88;;;10.09;100.00
19777;BME280;10047;42.490;26.012;2022-10-16T01:02:19;100847.63;;;10.56;100.00
19777;BME280;10047;42.490;26.012;2022-10-16T01:04:48;100879.94;;;10.48;100.00
19777;BME280;10047;42.490;26.012;2022-10-16T01:07:54;100901.78;;;10.63;100.00
19777;BME280;10047;42.490;26.012;2022-10-16T01:10:35;100898.50;;;10.55;100.00
19777;BME280;10047;42.490;26.012;2022-10-16T01:15:36;100912.66;;;10.74;100.00
19777;BME280;10047;42.490;26.012;2022-10-16T01:20:54;100908.88;;;10.39;100.00
19777;BME280;10047;42.490;26.012;2022-10-16T01:29:03;100919.03;;;10.39;100.00
19777;BME280;10047;42.490;26.012;2022-10-16T01:31:33;100918.84;;;10.55;100.00
19777;BME280;10047;42.490;26.012;2022-10-16T01:34:25;100854.59;;;10.42;100.00
19777;BME280;10047;42.490;26.012;2022-10-16T01:37:02;100925.22;;;10.84;100.00
19777;BME280;10047;42.490;26.012;2022-10-16T01:39:32;100928.78;;;11.29;100.00
19777;BME280;10047;42.490;26.012;2022-10-16T01:42:11;100927.53;;;11.01;100.00
19777;BME280;10047;42.490;26.012;2022-10-16T01:44:38;100929.03;;;11.14;100.00
19777;BME280;10047;42.490;26.012;2022-10-16T01:47:05;100932.75;;;11.48;100.00
19777;BME280;10047;42.490;26.012;2022-10-16T01:49:34;100922.97;;;11.76;100.00
19777;BME280;10047;42.490;26.012;2022-10-16T01:52:06;100932.97;;;11.86;100.00
19777;BME280;10047;42.490;26.012;2022-10-16T01:54:35;100910.50;;;11.58;100.00
19777;BME280;10047;42.490;26.012;2022-10-16T01:57:04;100929.13;;;11.61;100.00
19777;BME280;10047;42.490;26.012;2022-10-16T01:59:33;100930.69;;;11.71;100.00
19777;BME280;10047;42.490;26.012;2022-10-16T02:02:05;100915.63;;;11.56;100.00
19777;BME280;10047;42.490;26.012;2022-10-16T02:04:42;100862.63;;;11.27;100.00
19777;BME280;10047;42.490;26.012;2022-10-16T02:07:09;100906.22;;;11.60;100.00
19777;BME280;10047;42.490;26.012;2022-10-16T02:09:36;100852.22;;;11.41;100.00
19777;BME280;10047;42.490;26.012;2022-10-16T02:12:28;100918.97;;;11.60;100.00
19777;BME280;10047;42.490;26.012;2022-10-16T02:14:55;100927.22;;;11.75;100.00
19777;BME280;10047;42.490;26.012;2022-10-16T02:17:21;100938.97;;;11.29;100.00
19777;BME280;10047;42.490;26.012;2022-10-16T02:19:49;100928.41;;;11.55;100.00
19777;BME280;10047;42.490;26.012;2022-10-16T02:22:30;100925.16;;;11.44;100.00
19777;BME280;10047;42.490;26.012;2022-10-16T02:25:10;100864.59;;;11.12;100.00
19777;BME280;10047;42.490;26.012;2022-10-16T02:28:07;100930.41;;;11.34;100.00
19777;BME280;10047;42.490;26.012;2022-10-16T02:30:40;100934.69;;;11.32;100.00
19777;BME280;10047;42.490;26.012;2022-10-16T02:33:10;100937.38;;;11.78;100.00
19777;BME280;10047;42.490;26.012;2022-10-16T02:35:40;100943.03;;;11.42;100.00
19777;BME280;10047;42.490;26.012;2022-10-16T02:38:07;100931.41;;;11.26;100.00
19777;BME280;10047;42.490;26.012;2022-10-16T02:40:33;100938.66;;;11.50;100.00
19777;BME280;10047;42.490;26.012;2022-10-16T02:42:59;100903.75;;;11.02;100.00
19777;BME280;10047;42.490;26.012;2022-10-16T02:45:24;100888.00;;;10.79;100.00
19777;BME280;10047;42.490;26.012;2022-10-16T02:47:50;100942.09;;;10.91;100.00
19777;BME280;10047;42.490;26.012;2022-10-16T02:50:16;100951.50;;;10.85;100.00
19777;BME280;10047;42.490;26.012;2022-10-16T02:52:42;100958.84;;;11.06;100.00
19777;BME280;10047;42.490;26.012;2022-10-16T02:55:07;100959.84;;;10.94;100.00
19777;BME280;10047;42.490;26.012;2022-10-16T02:57:33;100952.34;;;10.87;100.00
19777;BME280;10047;42.490;26.012;2022-10-16T02:59:58;100969.81;;;11.67;100.00
19777;BME280;10047;42.490;26.012;2022-10-16T03:02:24;100964.84;;;11.02;100.00
19777;BME280;10047;42.490;26.012;2022-10-16T03:04:49;100907.97;;;10.42;100.00
19777;BME280;10047;42.490;26.012;2022-10-16T03:07:15;100920.84;;;10.31;100.00
19777;BME280;10047;42.490;26.012;2022-10-16T03:09:41;100964.47;;;10.67;100.00
19777;BME280;10047;42.490;26.012;2022-10-16T03:12:06;100920.22;;;10.78;100.00
19777;BME280;10047;42.490;26.012;2022-10-16T03:14:32;100909.53;;;10.55;100.00
19777;BME280;10047;42.490;26.012;2022-10-16T03:16:58;100862.78;;;9.95;100.00
19777;BME280;10047;42.490;26.012;2022-10-16T03:19:24;100913.22;;;10.28;100.00
19777;BME280;10047;42.490;26.012;2022-10-16T03:21:49;100915.69;;;10.37;100.00
19777;BME280;10047;42.490;26.012;2022-10-16T03:24:14;100919.97;;;10.32;100.00
19777;BME280;10047;42.490;26.012;2022-10-16T03:26:40;100958.47;;;11.31;100.00
19777;BME280;10047;42.490;26.012;2022-10-16T03:29:05;100977.31;;;13.78;100.00
19777;BME280;10047;42.490;26.012;2022-10-16T03:31:31;100958.56;;;12.25;100.00
19777;BME280;10047;42.490;26.012;2022-10-16T03:33:57;100962.06;;;13.01;100.00
19777;BME280;10047;42.490;26.012;2022-10-16T03:36:22;100968.50;;;12.38;100.00
19777;BME280;10047;42.490;26.012;2022-10-16T03:38:47;100941.78;;;11.12;100.00
19777;BME280;10047;42.490;26.012;2022-10-16T03:41:13;100915.81;;;10.25;100.00
19777;BME280;10047;42.490;26.012;2022-10-16T03:43:38;100915.84;;;10.22;100.00
19777;BME280;10047;42.490;26.012;2022-10-16T03:46:04;100940.38;;;10.26;100.00
19777;BME280;10047;42.490;26.012;2022-10-16T03:48:30;100988.06;;;10.76;100.00
19777;BME280;10047;42.490;26.012;2022-10-16T03:50:55;100941.03;;;10.43;100.00
19777;BME280;10047;42.490;26.012;2022-10-16T03:53:20;100965.16;;;10.78;100.00
19777;BME280;10047;42.490;26.012;2022-10-16T03:55:46;100947.75;;;10.46;100.00
19777;BME280;10047;42.490;26.012;2022-10-16T03:58:11;100999.69;;;10.97;100.00
19777;BME280;10047;42.490;26.012;2022-10-16T04:00:45;100882.78;;;10.25;100.00
19777;BME280;10047;42.490;26.012;2022-10-16T04:03:12;100946.84;;;10.53;100.00
19777;BME280;10047;42.490;26.012;2022-10-16T04:05:38;100980.56;;;10.66;100.00
19777;BME280;10047;42.490;26.012;2022-10-16T04:08:04;100934.34;;;10.35;100.00
19777;BME280;10047;42.490;26.012;2022-10-16T04:10:30;100971.31;;;10.62;100.00
19777;BME280;10047;42.490;26.012;2022-10-16T04:12:55;100970.38;;;10.69;100.00
19777;BME280;10047;42.490;26.012;2022-10-16T04:15:24;100917.25;;;10.48;100.00
19777;BME280;10047;42.490;26.012;2022-10-16T04:17:50;100937.91;;;10.19;100.00
19777;BME280;10047;42.490;26.012;2022-10-16T04:20:16;100947.63;;;10.60;100.00
19777;BME280;10047;42.490;26.012;2022-10-16T04:22:41;100994.03;;;10.74;100.00
19777;BME280;10047;42.490;26.012;2022-10-16T04:25:07;100940.69;;;10.68;100.00
19777;BME280;10047;42.490;26.012;2022-10-16T04:27:33;100925.69;;;10.50;100.00
19777;BME280;10047;42.490;26.012;2022-10-16T04:29:59;100995.13;;;10.55;100.00
19777;BME280;10047;42.490;26.012;2022-10-16T04:32:25;100935.28;;;10.28;100.00
19777;BME280;10047;42.490;26.012;2022-10-16T04:34:51;100919.03;;;10.41;100.00
19777;BME280;10047;42.490;26.012;2022-10-16T04:37:16;100950.59;;;10.90;100.00
19777;BME280;10047;42.490;26.012;2022-10-16T04:39:42;101013.88;;;11.14;100.00
19777;BME280;10047;42.490;26.012;2022-10-16T04:42:07;100988.16;;;11.32;100.00
19777;BME280;10047;42.490;26.012;2022-10-16T04:44:32;101027.19;;;10.66;100.00
19777;BME280;10047;42.490;26.012;2022-10-16T04:46:58;101030.22;;;10.24;100.00
19777;BME280;10047;42.490;26.012;2022-10-16T04:49:23;100943.31;;;9.83;100.00
19777;BME280;10047;42.490;26.012;2022-10-16T04:51:49;100970.88;;;10.25;100.00
19777;BME280;10047;42.490;26.012;2022-10-16T04:54:14;100923.97;;;9.74;100.00
19777;BME280;10047;42.490;26.012;2022-10-16T04:56:39;100966.84;;;10.01;100.00
19777;BME280;10047;42.490;26.012;2022-10-16T04:59:11;101027.66;;;10.22;100.00
19777;BME280;10047;42.490;26.012;2022-10-16T05:01:37;100958.97;;;10.97;100.00
19777;BME280;10047;42.490;26.012;2022-10-16T05:04:02;100981.88;;;11.53;100.00
19777;BME280;10047;42.490;26.012;2022-10-16T05:06:27;101045.91;;;11.27;100.00
19777;BME280;10047;42.490;26.012;2022-10-16T05:08:53;100982.81;;;10.20;100.00
19777;BME280;10047;42.490;26.012;2022-10-16T05:11:18;100987.97;;;10.08;100.00
19777;BME280;10047;42.490;26.012;2022-10-16T05:13:44;101030.06;;;10.37;100.00
19777;BME280;10047;42.490;26.012;2022-10-16T05:16:09;101047.78;;;11.76;100.00
19777;BME280;10047;42.490;26.012;2022-10-16T05:18:34;101003.97;;;12.93;100.00
19777;BME280;10047;42.490;26.012;2022-10-16T05:21:00;101041.16;;;13.44;100.00
19777;BME280;10047;42.490;26.012;2022-10-16T05:23:25;100939.78;;;13.11;100.00
19777;BME280;10047;42.490;26.012;2022-10-16T05:25:58;101062.88;;;14.64;100.00
19777;BME280;10047;42.490;26.012;2022-10-16T05:28:26;100995.00;;;14.19;100.00
19777;BME280;10047;42.490;26.012;2022-10-16T05:30:52;100960.44;;;14.37;100.00
19777;BME280;10047;42.490;26.012;2022-10-16T05:33:20;101016.00;;;15.21;100.00
19777;BME280;10047;42.490;26.012;2022-10-16T05:35:45;100973.06;;;14.43;100.00
19777;BME280;10047;42.490;26.012;2022-10-16T05:38:11;101077.53;;;15.19;100.00
19777;BME280;10047;42.490;26.012;2022-10-16T05:40:37;101080.75;;;15.55;100.00
19777;BME280;10047;42.490;26.012;2022-10-16T05:43:02;101033.16;;;15.19;100.00
19777;BME280;10047;42.490;26.012;2022-10-16T05:45:28;101091.19;;;15.49;100.00
19777;BME280;10047;42.490;26.012;2022-10-16T05:47:53;101038.06;;;15.54;100.00
19777;BME280;10047;42.490;26.012;2022-10-16T05:50:19;101040.25;;;15.66;100.00
19777;BME280;10047;42.490;26.012;2022-10-16T05:52:44;101003.16;;;14.65;100.00
19777;BME280;10047;42.490;26.012;2022-10-16T05:55:10;101085.66;;;14.43;100.00
19777;BME280;10047;42.490;26.012;2022-10-16T05:57:35;101071.19;;;13.71;100.00
19777;BME280;10047;42.490;26.012;2022-10-16T06:00:01;101069.94;;;13.52;100.00
19777;BME280;10047;42.490;26.012;2022-10-16T06:02:26;101077.53;;;13.55;100.00
19777;BME280;10047;42.490;26.012;2022-10-16T06:04:52;101072.94;;;13.69;100.00
19777;BME280;10047;42.490;26.012;2022-10-16T06:07:21;101043.53;;;13.52;100.00
19777;BME280;10047;42.490;26.012;2022-10-16T06:09:50;101081.75;;;14.27;100.00
19777;BME280;10047;42.490;26.012;2022-10-16T06:12:16;101079.94;;;13.98;100.00
19777;BME280;10047;42.490;26.012;2022-10-16T06:14:41;101075.94;;;14.22;100.00
19777;BME280;10047;42.490;26.012;2022-10-16T06:17:07;101076.16;;;14.48;100.00
19777;BME280;10047;42.490;26.012;2022-10-16T06:19:32;101042.22;;;13.72;100.00
19777;BME280;10047;42.490;26.012;2022-10-16T06:21:58;101087.72;;;14.61;100.00
19777;BME280;10047;42.490;26.012;2022-10-16T06:24:24;101104.84;;;13.88;100.00
19777;BME280;10047;42.490;26.012;2022-10-16T06:26:50;101101.00;;;14.08;100.00
19777;BME280;10047;42.490;26.012;2022-10-16T06:29:15;101095.97;;;14.40;100.00
19777;BME280;10047;42.490;26.012;2022-10-16T06:31:41;101056.00;;;14.34;100.00
19777;BME280;10047;42.490;26.012;2022-10-16T06:34:09;101100.31;;;14.68;100.00
19777;BME280;10047;42.490;26.012;2022-10-16T06:36:36;101086.56;;;15.03;100.00
19777;BME280;10047;42.490;26.012;2022-10-16T06:39:02;100999.34;;;14.16;100.00
19777;BME280;10047;42.490;26.012;2022-10-16T06:41:27;101106.28;;;15.00;100.00
19777;BME280;10047;42.490;26.012;2022-10-16T06:43:53;101042.31;;;14.37;100.00
19777;BME280;10047;42.490;26.012;2022-10-16T06:46:20;101083.88;;;14.77;100.00
19777;BME280;10047;42.490;26.012;2022-10-16T06:48:47;101043.09;;;14.71;100.00
19777;BME280;10047;42.490;26.012;2022-10-16T06:51:15;101120.53;;;15.39;100.00
19777;BME280;10047;42.490;26.012;2022-10-16T06:53:44;101062.38;;;15.41;100.00
19777;BME280;10047;42.490;26.012;2022-10-16T06:56:11;101125.47;;;15.74;100.00
19777;BME280;10047;42.490;26.012;2022-10-16T06:58:37;101080.91;;;15.50;100.00
19777;BME280;10047;42.490;26.012;2022-10-16T07:01:04;101060.75;;;15.38;100.00
19777;BME280;10047;42.490;26.012;2022-10-16T07:03:29;101043.16;;;15.26;100.00
19777;BME280;10047;42.490;26.012;2022-10-16T07:05:55;101125.66;;;16.46;100.00
19777;BME280;10047;42.490;26.012;2022-10-16T07:08:20;101119.78;;;15.91;100.00
19777;BME280;10047;42.490;26.012;2022-10-16T07:10:46;101119.63;;;16.74;100.00
19777;BME280;10047;42.490;26.012;2022-10-16T07:13:11;101122.06;;;16.52;100.00
19777;BME280;10047;42.490;26.012;2022-10-16T07:15:38;101107.09;;;16.65;100.00
19777;BME280;10047;42.490;26.012;2022-10-16T07:18:04;101120.16;;;16.82;100.00
19777;BME280;10047;42.490;26.012;2022-10-16T07:20:29;101130.72;;;16.48;100.00
19777;BME280;10047;42.490;26.012;2022-10-16T07:22:55;101081.09;;;15.98;100.00
19777;BME280;10047;42.490;26.012;2022-10-16T07:25:20;101087.63;;;16.33;100.00
19777;BME280;10047;42.490;26.012;2022-10-16T07:27:45;101078.00;;;16.64;100.00
19777;BME280;10047;42.490;26.012;2022-10-16T07:30:11;101074.88;;;16.05;100.00
19777;BME280;10047;42.490;26.012;2022-10-16T07:32:37;101069.13;;;16.50;100.00
19777;BME280;10047;42.490;26.012;2022-10-16T07:35:03;101036.84;;;16.41;100.00
19777;BME280;10047;42.490;26.012;2022-10-16T07:37:28;101065.41;;;16.81;93.85
19777;BME280;10047;42.490;26.012;2022-10-16T07:39:53;101038.88;;;16.81;87.26
19777;BME280;10047;42.490;26.012;2022-10-16T07:42:19;101113.44;;;16.79;83.19
19777;BME280;10047;42.490;26.012;2022-10-16T07:44:45;101095.41;;;17.04;83.19
19777;BME280;10047;42.490;26.012;2022-10-16T07:47:10;101093.88;;;16.98;82.65
19777;BME280;10047;42.490;26.012;2022-10-16T07:49:36;101048.28;;;17.48;77.98
19777;BME280;10047;42.490;26.012;2022-10-16T07:52:01;101071.00;;;16.92;78.93
19777;BME280;10047;42.490;26.012;2022-10-16T07:54:27;101068.69;;;17.08;77.02
19777;BME280;10047;42.490;26.012;2022-10-16T07:56:52;101075.97;;;16.97;73.82
19777;BME280;10047;42.490;26.012;2022-10-16T07:59:17;101113.00;;;16.67;72.94
19777;BME280;10047;42.490;26.012;2022-10-16T08:01:43;101097.78;;;17.31;70.57
19777;BME280;10047;42.490;26.012;2022-10-16T08:04:09;101018.06;;;16.65;71.36
19777;BME280;10047;42.490;26.012;2022-10-16T08:06:37;101052.75;;;17.21;70.22
19777;BME280;10047;42.490;26.012;2022-10-16T08:09:03;101107.53;;;17.68;68.61
19777;BME280;10047;42.490;26.012;2022-10-16T08:11:28;101099.53;;;17.76;67.27
19777;BME280;10047;42.490;26.012;2022-10-16T08:13:54;101062.75;;;17.52;66.67
19777;BME280;10047;42.490;26.012;2022-10-16T08:16:19;101041.97;;;17.35;67.64
19777;BME280;10047;42.490;26.012;2022-10-16T08:18:45;101095.66;;;17.43;68.08
19777;BME280;10047;42.490;26.012;2022-10-16T08:21:16;101060.56;;;17.63;67.13
19777;BME280;10047;42.490;26.012;2022-10-16T08:23:42;101044.94;;;17.24;68.06
19777;BME280;10047;42.490;26.012;2022-10-16T08:26:09;101061.81;;;17.53;68.55
19777;BME280;10047;42.490;26.012;2022-10-16T08:28:35;101061.56;;;17.81;64.38
19777;BME280;10047;42.490;26.012;2022-10-16T08:31:11;101121.97;;;17.94;64.23
19777;BME280;10047;42.490;26.012;2022-10-16T08:33:38;101106.28;;;17.78;68.53
19777;BME280;10047;42.490;26.012;2022-10-16T08:36:05;101103.59;;;18.23;70.78
19777;BME280;10047;42.490;26.012;2022-10-16T08:38:30;101104.47;;;18.02;73.50
19777;BME280;10047;42.490;26.012;2022-10-16T08:41:36;101110.63;;;17.98;65.79
19777;BME280;10047;42.490;26.012;2022-10-16T08:44:26;101109.56;;;18.03;66.08
19777;BME280;10047;42.490;26.012;2022-10-16T08:47:16;101119.78;;;18.05;60.17
19777;BME280;10047;42.490;26.012;2022-10-16T08:49:57;101041.31;;;17.73;57.44
19777;BME280;10047;42.490;26.012;2022-10-16T08:52:29;101093.03;;;18.29;57.76
19777;BME280;10047;42.490;26.012;2022-10-16T08:54:57;101035.56;;;18.49;56.18
19777;BME280;10047;42.490;26.012;2022-10-16T08:57:25;101079.09;;;18.55;55.07
19777;BME280;10047;42.490;26.012;2022-10-16T08:59:52;101033.69;;;18.32;55.28
19777;BME280;10047;42.490;26.012;2022-10-16T09:08:03;101119.38;;;18.76;56.13
19777;BME280;10047;42.490;26.012;2022-10-16T09:14:06;101107.81;;;19.42;54.28
19777;BME280;10047;42.490;26.012;2022-10-16T09:16:49;101087.09;;;19.62;52.96
19777;BME280;10047;42.490;26.012;2022-10-16T09:19:23;101106.47;;;18.96;53.99
19777;BME280;10047;42.490;26.012;2022-10-16T09:21:51;101066.06;;;19.34;53.50
19777;BME280;10047;42.490;26.012;2022-10-16T09:24:21;101046.41;;;18.75;53.82
19777;BME280;10047;42.490;26.012;2022-10-16T09:26:47;101054.91;;;19.15;52.45
19777;BME280;10047;42.490;26.012;2022-10-16T09:29:13;101090.13;;;19.88;51.78
19777;BME280;10047;42.490;26.012;2022-10-16T09:31:40;101059.56;;;19.62;51.40
19777;BME280;10047;42.490;26.012;2022-10-16T09:34:22;101087.56;;;19.34;51.75
19777;BME280;10047;42.490;26.012;2022-10-16T09:36:51;101107.84;;;20.30;50.15
19777;BME280;10047;42.490;26.012;2022-10-16T09:39:16;101002.22;;;19.20;50.96
19777;BME280;10047;42.490;26.012;2022-10-16T09:41:44;101096.72;;;19.94;49.86
19777;BME280;10047;42.490;26.012;2022-10-16T09:44:30;101090.06;;;20.41;49.04
19777;BME280;10047;42.490;26.012;2022-10-16T09:47:04;101047.03;;;18.80;50.39
19777;BME280;10047;42.490;26.012;2022-10-16T09:49:30;101036.38;;;19.25;49.38
19777;BME280;10047;42.490;26.012;2022-10-16T09:52:22;101101.56;;;20.68;48.25
19777;BME280;10047;42.490;26.012;2022-10-16T09:54:52;101098.06;;;20.01;49.21
19777;BME280;10047;42.490;26.012;2022-10-16T09:57:17;101022.59;;;19.62;48.57
19777;BME280;10047;42.490;26.012;2022-10-16T09:59:48;100997.81;;;19.41;47.75
19777;BME280;10047;42.490;26.012;2022-10-16T10:02:15;101033.28;;;19.71;48.15
19777;BME280;10047;42.490;26.012;2022-10-16T10:04:48;101019.19;;;19.96;47.99
19777;BME280;10047;42.490;26.012;2022-10-16T10:07:23;101023.34;;;19.47;47.82
19777;BME280;10047;42.490;26.012;2022-10-16T10:09:50;101019.09;;;20.64;46.58
19777;BME280;10047;42.490;26.012;2022-10-16T10:12:28;101035.34;;;20.66;46.70
19777;BME280;10047;42.490;26.012;2022-10-16T10:14:57;101075.28;;;20.60;46.38
19777;BME280;10047;42.490;26.012;2022-10-16T10:17:25;101024.88;;;20.02;47.26
19777;BME280;10047;42.490;26.012;2022-10-16T10:19:56;101079.06;;;20.70;47.07
19777;BME280;10047;42.490;26.012;2022-10-16T10:22:40;101065.88;;;21.08;46.81
19777;BME280;10047;42.490;26.012;2022-10-16T10:35:29;101016.44;;;20.65;46.85
19777;BME280;10047;42.490;26.012;2022-10-16T10:38:13;101064.81;;;21.27;46.40
19777;BME280;10047;42.490;26.012;2022-10-16T10:46:35;101043.09;;;21.75;45.19
19777;BME280;10047;42.490;26.012;2022-10-16T11:00:20;101050.91;;;21.59;45.93
19777;BME280;10047;42.490;26.012;2022-10-16T11:03:03;101037.69;;;21.19;45.23
19777;BME280;10047;42.490;26.012;2022-10-16T11:05:49;100986.38;;;21.56;43.85
19777;BME280;10047;42.490;26.012;2022-10-16T11:08:29;100997.72;;;21.24;44.71
19777;BME280;10047;42.490;26.012;2022-10-16T11:11:01;101033.53;;;21.62;44.63
19777;BME280;10047;42.490;26.012;2022-10-16T11:15:56;100999.66;;;22.10;44.01
19777;BME280;10047;42.490;26.012;2022-10-16T11:18:40;101016.53;;;22.31;43.40
19777;BME280;10047;42.490;26.012;2022-10-16T11:21:12;101026.69;;;22.06;43.53
19777;BME280;10047;42.490;26.012;2022-10-16T11:23:56;101008.84;;;22.43;43.59
19777;BME280;10047;42.490;26.012;2022-10-16T11:26:30;101039.75;;;22.04;43.21
19777;BME280;10047;42.490;26.012;2022-10-16T11:28:57;100984.59;;;22.16;42.87
19777;BME280;10047;42.490;26.012;2022-10-16T11:31:26;101043.53;;;21.83;42.97
19777;BME280;10047;42.490;26.012;2022-10-16T11:39:22;101039.38;;;21.65;43.60
19777;BME280;10047;42.490;26.012;2022-10-16T11:47:01;101029.72;;;21.98;43.21
19777;BME280;10047;42.490;26.012;2022-10-16T11:49:32;100983.19;;;21.06;44.16
19777;BME280;10047;42.490;26.012;2022-10-16T11:54:52;100971.66;;;22.16;43.80
19777;BME280;10047;42.490;26.012;2022-10-16T11:57:32;101024.59;;;21.67;44.15
19777;BME280;10047;42.490;26.012;2022-10-16T12:00:05;100986.06;;;22.34;41.36
19777;BME280;10047;42.490;26.012;2022-10-16T12:02:50;101026.53;;;22.51;42.24
19777;BME280;10047;42.490;26.012;2022-10-16T12:05:43;101041.44;;;21.90;42.23
19777;BME280;10047;42.490;26.012;2022-10-16T12:08:16;100999.19;;;21.74;42.93
19777;BME280;10047;42.490;26.012;2022-10-16T12:10:44;101008.22;;;22.26;41.90
19777;BME280;10047;42.490;26.012;2022-10-16T12:13:49;101030.94;;;22.21;41.81
19777;BME280;10047;42.490;26.012;2022-10-16T12:18:42;100985.06;;;22.51;41.60
19777;BME280;10047;42.490;26.012;2022-10-16T12:21:09;100972.19;;;22.78;41.38
19777;BME280;10047;42.490;26.012;2022-10-16T12:23:56;100977.16;;;22.81;42.31
19777;BME280;10047;42.490;26.012;2022-10-16T12:26:28;101021.22;;;22.24;42.16
19777;BME280;10047;42.490;26.012;2022-10-16T12:28:55;101025.91;;;22.48;42.01
19777;BME280;10047;42.490;26.012;2022-10-16T12:31:21;100964.69;;;22.17;40.71
19777;BME280;10047;42.490;26.012;2022-10-16T12:34:02;101012.38;;;22.57;41.24
19777;BME280;10047;42.490;26.012;2022-10-16T12:36:33;100978.22;;;22.50;41.27
19777;BME280;10047;42.490;26.012;2022-10-16T12:38:59;100999.44;;;21.39;41.91
19777;BME280;10047;42.490;26.012;2022-10-16T12:41:30;101047.38;;;21.76;41.28
19777;BME280;10047;42.490;26.012;2022-10-16T12:43:56;101028.56;;;22.18;41.95
19777;BME280;10047;42.490;26.012;2022-10-16T12:46:44;101049.31;;;21.57;42.67
19777;BME280;10047;42.490;26.012;2022-10-16T12:51:37;101039.22;;;22.27;41.46
19777;BME280;10047;42.490;26.012;2022-10-16T12:54:15;101032.28;;;22.42;40.49
19777;BME280;10047;42.490;26.012;2022-10-16T12:59:38;101000.50;;;22.24;40.31
19777;BME280;10047;42.490;26.012;2022-10-16T13:10:26;101050.00;;;22.64;41.04
19777;BME280;10047;42.490;26.012;2022-10-16T13:21:18;101048.97;;;21.79;41.38
19777;BME280;10047;42.490;26.012;2022-10-16T13:23:55;101044.94;;;22.32;41.21
19777;BME280;10047;42.490;26.012;2022-10-16T13:26:44;101042.53;;;22.29;40.87
19777;BME280;10047;42.490;26.012;2022-10-16T13:29:12;101041.50;;;22.18;40.44
19777;BME280;10047;42.490;26.012;2022-10-16T13:31:39;101047.28;;;21.32;41.21
19777;BME280;10047;42.490;26.012;2022-10-16T13:34:05;101002.09;;;22.55;40.22
19777;BME280;10047;42.490;26.012;2022-10-16T13:36:46;101019.03;;;21.43;40.36
19777;BME280;10047;42.490;26.012;2022-10-16T13:42:22;101063.09;;;22.47;40.29
19777;BME280;10047;42.490;26.012;2022-10-16T13:44:50;101002.34;;;21.49;40.48
19777;BME280;10047;42.490;26.012;2022-10-16T13:47:21;100995.91;;;22.29;39.59
19777;BME280;10047;42.490;26.012;2022-10-16T13:49:58;101053.75;;;22.30;40.65
19777;BME280;10047;42.490;26.012;2022-10-16T13:52:24;101010.63;;;21.40;40.90
19777;BME280;10047;42.490;26.012;2022-10-16T13:54:49;100996.69;;;21.42;40.11
19777;BME280;10047;42.490;26.012;2022-10-16T13:57:16;101041.78;;;22.13;40.36
19777;BME280;10047;42.490;26.012;2022-10-16T13:59:43;101067.03;;;21.65;40.13
19777;BME280;10047;42.490;26.012;2022-10-16T14:02:18;101056.97;;;21.44;40.98
19777;BME280;10047;42.490;26.012;2022-10-16T14:04:45;101030.47;;;22.00;40.16
19777;BME280;10047;42.490;26.012;2022-10-16T14:07:18;101016.63;;;22.29;39.33
19777;BME280;10047;42.490;26.012;2022-10-16T14:09:48;100986.59;;;24.51;36.14
19777;BME280;10047;42.490;26.012;2022-10-16T14:12:15;101015.59;;;25.66;34.90
19777;BME280;10047;42.490;26.012;2022-10-16T14:14:43;101074.75;;;26.23;34.47
19777;BME280;10047;42.490;26.012;2022-10-16T14:17:18;101059.88;;;26.58;33.78